ASA31 KSLC-KDFW
Flight info
| Callsign | ASA31 |
|---|---|
| Flight time | 1h 58m |
| Altitude | 33000 |
| Route | KIMMR PNH MDANO JOVEM6 |
| Aircraft | B739/M-SDE2E3FGHIRWXY/LB1 |
Departure
| Time | 2026-04-30 06:14 |
|---|---|
| Airport | Salt Lake City International Airport (KSLC) |
Arrival
| Time | 2026-04-30 08:12 |
|---|---|
| Airport | Dallas Fort Worth International Airport (KDFW) |
| Time | Latitude | Longitude | Altitude | Speed | Heading |
|---|---|---|---|---|---|
| 2026-04-30 05:52 | 40.78676 | -111.97904 | 4231 ft | 0 kts | 180° |
| 2026-04-30 06:04 | 40.78685 | -111.97903 | 4230 ft | 2 kts | 180° |
| 2026-04-30 06:05 | 40.78717 | -111.97903 | 4231 ft | 2 kts | 180° |
| 2026-04-30 06:05 | 40.78733 | -111.97904 | 4231 ft | 2 kts | 159° |
| 2026-04-30 06:05 | 40.78745 | -111.97915 | 4232 ft | 1 kts | 95° |
| 2026-04-30 06:05 | 40.78745 | -111.97924 | 4231 ft | 0 kts | 84° |
| 2026-04-30 06:08 | 40.78745 | -111.97923 | 4231 ft | 1 kts | 84° |
| 2026-04-30 06:08 | 40.78747 | -111.97894 | 4233 ft | 6 kts | 84° |
| 2026-04-30 06:08 | 40.78753 | -111.97827 | 4233 ft | 9 kts | 84° |
| 2026-04-30 06:09 | 40.78758 | -111.97732 | 4232 ft | 9 kts | 96° |
| 2026-04-30 06:09 | 40.78715 | -111.97680 | 4232 ft | 9 kts | 166° |
| 2026-04-30 06:09 | 40.78654 | -111.97669 | 4232 ft | 10 kts | 174° |
| 2026-04-30 06:09 | 40.78581 | -111.97659 | 4231 ft | 11 kts | 174° |
| 2026-04-30 06:10 | 40.78490 | -111.97646 | 4227 ft | 16 kts | 174° |
| 2026-04-30 06:10 | 40.78371 | -111.97631 | 4226 ft | 18 kts | 174° |
| 2026-04-30 06:10 | 40.78249 | -111.97619 | 4227 ft | 17 kts | 176° |
| 2026-04-30 06:10 | 40.78131 | -111.97605 | 4225 ft | 17 kts | 174° |
| 2026-04-30 06:11 | 40.78017 | -111.97591 | 4259 ft | 16 kts | 175° |
| 2026-04-30 06:11 | 40.77931 | -111.97580 | 4259 ft | 10 kts | 168° |
| 2026-04-30 06:11 | 40.77871 | -111.97548 | 4259 ft | 9 kts | 154° |
| 2026-04-30 06:11 | 40.77810 | -111.97521 | 4260 ft | 9 kts | 170° |
| 2026-04-30 06:12 | 40.77748 | -111.97512 | 4262 ft | 9 kts | 173° |
| 2026-04-30 06:12 | 40.77689 | -111.97502 | 4263 ft | 9 kts | 173° |
| 2026-04-30 06:12 | 40.77630 | -111.97494 | 4263 ft | 8 kts | 174° |
| 2026-04-30 06:12 | 40.77573 | -111.97488 | 4262 ft | 8 kts | 177° |
| 2026-04-30 06:13 | 40.77513 | -111.97486 | 4261 ft | 9 kts | 179° |
| 2026-04-30 06:13 | 40.77460 | -111.97457 | 4261 ft | 8 kts | 131° |
| 2026-04-30 06:13 | 40.77455 | -111.97387 | 4260 ft | 8 kts | 59° |
| 2026-04-30 06:13 | 40.77499 | -111.97342 | 4260 ft | 8 kts | 28° |
| 2026-04-30 06:14 | 40.77586 | -111.97330 | 4259 ft | 31 kts | 355° |
| 2026-04-30 06:14 | 40.78104 | -111.97388 | 4260 ft | 115 kts | 353° |
| 2026-04-30 06:14 | 40.79138 | -111.97510 | 4264 ft | 177 kts | 355° |
| 2026-04-30 06:14 | 40.80429 | -111.97682 | 4842 ft | 199 kts | 354° |
| 2026-04-30 06:15 | 40.81863 | -111.97903 | 5629 ft | 216 kts | 349° |
| 2026-04-30 06:15 | 40.83155 | -111.98787 | 6748 ft | 210 kts | 316° |
| 2026-04-30 06:15 | 40.83911 | -112.00475 | 7275 ft | 226 kts | 285° |
| 2026-04-30 06:15 | 40.84069 | -112.02651 | 7507 ft | 249 kts | 272° |
| 2026-04-30 06:16 | 40.83928 | -112.04977 | 7922 ft | 261 kts | 252° |
| 2026-04-30 06:16 | 40.83086 | -112.07079 | 8601 ft | 263 kts | 240° |
| 2026-04-30 06:16 | 40.82135 | -112.09255 | 8957 ft | 282 kts | 242° |
| 2026-04-30 06:16 | 40.81180 | -112.11584 | 9632 ft | 291 kts | 244° |
| 2026-04-30 06:17 | 40.80250 | -112.13964 | 10527 ft | 295 kts | 245° |
| 2026-04-30 06:17 | 40.79305 | -112.16487 | 10791 ft | 321 kts | 246° |
| 2026-04-30 06:17 | 40.78316 | -112.19205 | 11017 ft | 344 kts | 246° |
| 2026-04-30 06:17 | 40.77266 | -112.22115 | 11610 ft | 354 kts | 246° |
| 2026-04-30 06:18 | 40.76058 | -112.24982 | 12414 ft | 360 kts | 232° |
| 2026-04-30 06:18 | 40.74135 | -112.27109 | 13283 ft | 365 kts | 210° |
| 2026-04-30 06:18 | 40.71756 | -112.28197 | 14114 ft | 370 kts | 192° |
| 2026-04-30 06:18 | 40.69209 | -112.28315 | 15121 ft | 365 kts | 171° |
| 2026-04-30 06:19 | 40.66812 | -112.27157 | 16073 ft | 365 kts | 149° |
| 2026-04-30 06:19 | 40.64871 | -112.25070 | 16765 ft | 370 kts | 131° |
| 2026-04-30 06:19 | 40.63416 | -112.22253 | 17439 ft | 374 kts | 120° |
| 2026-04-30 06:19 | 40.62098 | -112.19256 | 18155 ft | 379 kts | 119° |
| 2026-04-30 06:20 | 40.60797 | -112.16204 | 18772 ft | 384 kts | 118° |
| 2026-04-30 06:20 | 40.59489 | -112.13116 | 19387 ft | 388 kts | 118° |
| 2026-04-30 06:20 | 40.58179 | -112.10032 | 20009 ft | 392 kts | 119° |
| 2026-04-30 06:20 | 40.56833 | -112.06888 | 20626 ft | 396 kts | 119° |
| 2026-04-30 06:21 | 40.55467 | -112.03718 | 21237 ft | 400 kts | 119° |
| 2026-04-30 06:21 | 40.54081 | -112.00520 | 21841 ft | 404 kts | 119° |
| 2026-04-30 06:21 | 40.52676 | -111.97292 | 22446 ft | 408 kts | 119° |
| 2026-04-30 06:21 | 40.51255 | -111.94036 | 23037 ft | 412 kts | 119° |
| 2026-04-30 06:22 | 40.49833 | -111.90784 | 23605 ft | 416 kts | 119° |
| 2026-04-30 06:22 | 40.48380 | -111.87466 | 24101 ft | 420 kts | 119° |
| 2026-04-30 06:22 | 40.46911 | -111.84116 | 24587 ft | 424 kts | 120° |
| 2026-04-30 06:22 | 40.45429 | -111.80741 | 25074 ft | 427 kts | 120° |
| 2026-04-30 06:23 | 40.43940 | -111.77353 | 25582 ft | 430 kts | 120° |
| 2026-04-30 06:23 | 40.42434 | -111.73930 | 26072 ft | 433 kts | 120° |
| 2026-04-30 06:23 | 40.40921 | -111.70495 | 26552 ft | 437 kts | 120° |
| 2026-04-30 06:23 | 40.39412 | -111.67074 | 27003 ft | 440 kts | 120° |
| 2026-04-30 06:24 | 40.37867 | -111.63575 | 27461 ft | 444 kts | 120° |
| 2026-04-30 06:24 | 40.36304 | -111.60038 | 27879 ft | 448 kts | 121° |
| 2026-04-30 06:24 | 40.34732 | -111.56486 | 28282 ft | 452 kts | 121° |
| 2026-04-30 06:24 | 40.33161 | -111.52939 | 28655 ft | 457 kts | 121° |
| 2026-04-30 06:25 | 40.31552 | -111.49312 | 29050 ft | 461 kts | 121° |
| 2026-04-30 06:25 | 40.29930 | -111.45659 | 29506 ft | 463 kts | 121° |
| 2026-04-30 06:25 | 40.28320 | -111.42035 | 29930 ft | 466 kts | 121° |
| 2026-04-30 06:25 | 40.26671 | -111.38331 | 30378 ft | 467 kts | 121° |
| 2026-04-30 06:26 | 40.25029 | -111.34645 | 30776 ft | 468 kts | 122° |
| 2026-04-30 06:26 | 40.23403 | -111.31000 | 31199 ft | 468 kts | 122° |
| 2026-04-30 06:26 | 40.21758 | -111.27315 | 31650 ft | 468 kts | 122° |
| 2026-04-30 06:26 | 40.20666 | -111.24873 | 31975 ft | 467 kts | 122° |
| 2026-04-30 06:27 | 40.18486 | -111.20001 | 32472 ft | 468 kts | 123° |
| 2026-04-30 06:27 | 40.17389 | -111.17553 | 32671 ft | 470 kts | 123° |
| 2026-04-30 06:27 | 40.15732 | -111.13861 | 32984 ft | 472 kts | 123° |
| 2026-04-30 06:27 | 40.14053 | -111.10123 | 33260 ft | 475 kts | 123° |
| 2026-04-30 06:28 | 40.12372 | -111.06385 | 33607 ft | 476 kts | 123° |
| 2026-04-30 06:28 | 40.10716 | -111.02707 | 33973 ft | 477 kts | 123° |
| 2026-04-30 06:28 | 40.09026 | -110.98958 | 34314 ft | 477 kts | 123° |
| 2026-04-30 06:28 | 40.07330 | -110.95206 | 34550 ft | 479 kts | 123° |
| 2026-04-30 06:29 | 40.05634 | -110.91451 | 34762 ft | 481 kts | 123° |
| 2026-04-30 06:29 | 40.03923 | -110.87667 | 34913 ft | 485 kts | 124° |
| 2026-04-30 06:29 | 40.02218 | -110.83901 | 35117 ft | 486 kts | 124° |
| 2026-04-30 06:30 | 39.98738 | -110.76234 | 35175 ft | 495 kts | 124° |
| 2026-04-30 06:30 | 39.95193 | -110.68442 | 35150 ft | 499 kts | 124° |
| 2026-04-30 06:31 | 39.91665 | -110.60703 | 35139 ft | 499 kts | 124° |
| 2026-04-30 06:31 | 39.88109 | -110.52919 | 35120 ft | 498 kts | 124° |
| 2026-04-30 06:32 | 39.84573 | -110.45201 | 35122 ft | 498 kts | 125° |
| 2026-04-30 06:32 | 39.81012 | -110.37454 | 35114 ft | 498 kts | 125° |
| 2026-04-30 06:33 | 39.77478 | -110.29783 | 35116 ft | 497 kts | 125° |
| 2026-04-30 06:33 | 39.73908 | -110.22052 | 35098 ft | 498 kts | 125° |
| 2026-04-30 06:34 | 39.70354 | -110.14376 | 35097 ft | 498 kts | 125° |
| 2026-04-30 06:34 | 39.66765 | -110.06641 | 35092 ft | 500 kts | 126° |
| 2026-04-30 06:35 | 39.63157 | -109.98885 | 35092 ft | 501 kts | 126° |
| 2026-04-30 06:35 | 39.59562 | -109.91179 | 35040 ft | 502 kts | 126° |
| 2026-04-30 06:36 | 39.55919 | -109.83386 | 35067 ft | 505 kts | 126° |
| 2026-04-30 06:36 | 39.52289 | -109.75638 | 35077 ft | 507 kts | 127° |
| 2026-04-30 06:37 | 39.48618 | -109.67826 | 35065 ft | 509 kts | 127° |
| 2026-04-30 06:37 | 39.44923 | -109.59981 | 35052 ft | 510 kts | 127° |
| 2026-04-30 06:38 | 39.41248 | -109.52195 | 35032 ft | 510 kts | 127° |
| 2026-04-30 06:38 | 39.37527 | -109.44332 | 35047 ft | 512 kts | 128° |
| 2026-04-30 06:39 | 39.33795 | -109.36464 | 35024 ft | 513 kts | 127° |
| 2026-04-30 06:39 | 39.30082 | -109.28649 | 35018 ft | 513 kts | 127° |
| 2026-04-30 06:40 | 39.26331 | -109.20777 | 35006 ft | 512 kts | 129° |
| 2026-04-30 06:40 | 39.22599 | -109.12981 | 35017 ft | 513 kts | 129° |
| 2026-04-30 06:41 | 39.18844 | -109.05152 | 35014 ft | 514 kts | 129° |
| 2026-04-30 06:41 | 39.15071 | -108.97300 | 35012 ft | 516 kts | 129° |
| 2026-04-30 06:42 | 39.11305 | -108.89479 | 35007 ft | 517 kts | 129° |
| 2026-04-30 06:42 | 39.07510 | -108.81634 | 35000 ft | 518 kts | 129° |
| 2026-04-30 06:43 | 39.03706 | -108.73763 | 35078 ft | 519 kts | 129° |
| 2026-04-30 06:43 | 38.99867 | -108.65842 | 35074 ft | 519 kts | 129° |
| 2026-04-30 06:44 | 38.96058 | -108.58007 | 35027 ft | 518 kts | 130° |
| 2026-04-30 06:44 | 38.92228 | -108.50150 | 35061 ft | 518 kts | 130° |
| 2026-04-30 06:45 | 38.88408 | -108.42327 | 35071 ft | 520 kts | 130° |
| 2026-04-30 06:45 | 38.84556 | -108.34479 | 35066 ft | 523 kts | 130° |
| 2026-04-30 06:46 | 38.80665 | -108.26556 | 35105 ft | 524 kts | 130° |
| 2026-04-30 06:46 | 38.76774 | -108.18648 | 35114 ft | 525 kts | 131° |
| 2026-04-30 06:47 | 38.72878 | -108.10757 | 35127 ft | 526 kts | 131° |
| 2026-04-30 06:47 | 38.68956 | -108.02832 | 35128 ft | 528 kts | 131° |
| 2026-04-30 06:48 | 38.65020 | -107.94896 | 35119 ft | 529 kts | 131° |
| 2026-04-30 06:48 | 38.61071 | -107.86951 | 35117 ft | 529 kts | 132° |
| 2026-04-30 06:49 | 38.57102 | -107.78989 | 35040 ft | 531 kts | 132° |
| 2026-04-30 06:49 | 38.53137 | -107.71069 | 35050 ft | 533 kts | 132° |
| 2026-04-30 06:50 | 38.49134 | -107.63068 | 35047 ft | 533 kts | 132° |
| 2026-04-30 06:50 | 38.45139 | -107.55101 | 35001 ft | 531 kts | 132° |
| 2026-04-30 06:51 | 38.41150 | -107.47180 | 35048 ft | 531 kts | 133° |
| 2026-04-30 06:51 | 38.37165 | -107.39277 | 35093 ft | 532 kts | 133° |
| 2026-04-30 06:52 | 38.33151 | -107.31347 | 35084 ft | 532 kts | 133° |
| 2026-04-30 06:52 | 38.29150 | -107.23462 | 35041 ft | 532 kts | 133° |
| 2026-04-30 06:53 | 38.25128 | -107.15546 | 35107 ft | 533 kts | 133° |
| 2026-04-30 06:53 | 38.21100 | -107.07637 | 35111 ft | 535 kts | 133° |
| 2026-04-30 06:54 | 38.17037 | -106.99672 | 35101 ft | 538 kts | 133° |
| 2026-04-30 06:54 | 38.12935 | -106.91668 | 35101 ft | 539 kts | 133° |
| 2026-04-30 06:55 | 38.08842 | -106.83702 | 35095 ft | 541 kts | 134° |
| 2026-04-30 06:55 | 38.04736 | -106.75728 | 35095 ft | 542 kts | 134° |
| 2026-04-30 06:56 | 38.00599 | -106.67705 | 35113 ft | 543 kts | 133° |
| 2026-04-30 06:56 | 37.96439 | -106.59659 | 35121 ft | 545 kts | 134° |
| 2026-04-30 06:57 | 37.92301 | -106.51639 | 35091 ft | 548 kts | 134° |
| 2026-04-30 06:57 | 37.88078 | -106.43524 | 35141 ft | 555 kts | 134° |
| 2026-04-30 06:58 | 37.83818 | -106.35369 | 35161 ft | 560 kts | 134° |
| 2026-04-30 06:58 | 37.79528 | -106.27149 | 35167 ft | 555 kts | 134° |
| 2026-04-30 06:59 | 37.75299 | -106.19048 | 35109 ft | 551 kts | 135° |
| 2026-04-30 06:59 | 37.71060 | -106.10975 | 35120 ft | 551 kts | 135° |
| 2026-04-30 07:00 | 37.66810 | -106.02910 | 35088 ft | 554 kts | 135° |
| 2026-04-30 07:00 | 37.62532 | -105.94805 | 35055 ft | 557 kts | 135° |
| 2026-04-30 07:01 | 37.58214 | -105.86637 | 35131 ft | 559 kts | 135° |
| 2026-04-30 07:01 | 37.53906 | -105.78504 | 35131 ft | 561 kts | 135° |
| 2026-04-30 07:02 | 37.49545 | -105.70293 | 35125 ft | 563 kts | 135° |
| 2026-04-30 07:02 | 37.45202 | -105.62136 | 35142 ft | 565 kts | 135° |
| 2026-04-30 07:03 | 37.40798 | -105.53889 | 35088 ft | 568 kts | 135° |
| 2026-04-30 07:03 | 37.36378 | -105.45628 | 35069 ft | 569 kts | 135° |
| 2026-04-30 07:04 | 37.31952 | -105.37373 | 35048 ft | 569 kts | 135° |
| 2026-04-30 07:04 | 37.27542 | -105.29167 | 35062 ft | 569 kts | 135° |
| 2026-04-30 07:05 | 37.20868 | -105.16792 | 35089 ft | 569 kts | 135° |
| 2026-04-30 07:05 | 37.16437 | -105.08604 | 35075 ft | 568 kts | 136° |
| 2026-04-30 07:06 | 37.11992 | -105.00404 | 35101 ft | 568 kts | 136° |
| 2026-04-30 07:06 | 37.07527 | -104.92205 | 35066 ft | 570 kts | 135° |
| 2026-04-30 07:07 | 37.03063 | -104.84021 | 35065 ft | 571 kts | 135° |
| 2026-04-30 07:07 | 36.98569 | -104.75795 | 35080 ft | 572 kts | 136° |
| 2026-04-30 07:08 | 36.94046 | -104.67542 | 35103 ft | 575 kts | 136° |
| 2026-04-30 07:08 | 36.89520 | -104.59300 | 35149 ft | 578 kts | 135° |
| 2026-04-30 07:09 | 36.84957 | -104.50968 | 35152 ft | 580 kts | 136° |
| 2026-04-30 07:09 | 36.80407 | -104.42724 | 35164 ft | 578 kts | 136° |
| 2026-04-30 07:10 | 36.75821 | -104.34452 | 35145 ft | 576 kts | 136° |
| 2026-04-30 07:10 | 36.71288 | -104.26288 | 35119 ft | 574 kts | 136° |
| 2026-04-30 07:11 | 36.66741 | -104.18105 | 35079 ft | 572 kts | 136° |
| 2026-04-30 07:11 | 36.62220 | -104.09988 | 35045 ft | 571 kts | 136° |
| 2026-04-30 07:12 | 36.57689 | -104.01876 | 35059 ft | 568 kts | 136° |
| 2026-04-30 07:12 | 36.53201 | -103.93864 | 35069 ft | 567 kts | 136° |
| 2026-04-30 07:13 | 36.48670 | -103.85792 | 35067 ft | 567 kts | 136° |
| 2026-04-30 07:13 | 36.44181 | -103.77812 | 35072 ft | 566 kts | 136° |
| 2026-04-30 07:14 | 36.39671 | -103.69811 | 35079 ft | 563 kts | 136° |
| 2026-04-30 07:14 | 36.35169 | -103.61843 | 35069 ft | 562 kts | 136° |
| 2026-04-30 07:15 | 36.30673 | -103.53909 | 35078 ft | 562 kts | 136° |
| 2026-04-30 07:15 | 36.26203 | -103.46038 | 35077 ft | 561 kts | 136° |
| 2026-04-30 07:16 | 36.21699 | -103.38123 | 35085 ft | 560 kts | 136° |
| 2026-04-30 07:16 | 36.17196 | -103.30228 | 35089 ft | 559 kts | 136° |
| 2026-04-30 07:17 | 36.12718 | -103.22396 | 35088 ft | 559 kts | 136° |
| 2026-04-30 07:18 | 36.06729 | -103.11948 | 35069 ft | 559 kts | 136° |
| 2026-04-30 07:18 | 36.01480 | -103.02816 | 35041 ft | 559 kts | 136° |
| 2026-04-30 07:19 | 35.97746 | -102.96335 | 35057 ft | 558 kts | 136° |
| 2026-04-30 07:19 | 35.93227 | -102.88509 | 35073 ft | 558 kts | 136° |
| 2026-04-30 07:20 | 35.88742 | -102.80758 | 35089 ft | 557 kts | 136° |
| 2026-04-30 07:20 | 35.84217 | -102.72956 | 35047 ft | 558 kts | 136° |
| 2026-04-30 07:21 | 35.79695 | -102.65175 | 35045 ft | 556 kts | 135° |
| 2026-04-30 07:21 | 35.75204 | -102.57465 | 35045 ft | 555 kts | 135° |
| 2026-04-30 07:22 | 35.68455 | -102.45913 | 35050 ft | 554 kts | 135° |
| 2026-04-30 07:22 | 35.63935 | -102.38198 | 35062 ft | 555 kts | 135° |
| 2026-04-30 07:23 | 35.59435 | -102.30535 | 35026 ft | 555 kts | 135° |
| 2026-04-30 07:23 | 35.54909 | -102.22840 | 35037 ft | 554 kts | 135° |
| 2026-04-30 07:24 | 35.50404 | -102.15198 | 35052 ft | 554 kts | 135° |
| 2026-04-30 07:24 | 35.45897 | -102.07573 | 35048 ft | 553 kts | 135° |
| 2026-04-30 07:25 | 35.41361 | -101.99912 | 35080 ft | 554 kts | 136° |
| 2026-04-30 07:25 | 35.36809 | -101.92244 | 35095 ft | 555 kts | 136° |
| 2026-04-30 07:26 | 35.32286 | -101.84636 | 35112 ft | 556 kts | 136° |
| 2026-04-30 07:26 | 35.27718 | -101.76965 | 35129 ft | 557 kts | 136° |
| 2026-04-30 07:27 | 35.23192 | -101.69253 | 35110 ft | 562 kts | 131° |
| 2026-04-30 07:27 | 35.19464 | -101.60781 | 35136 ft | 573 kts | 124° |
| 2026-04-30 07:28 | 35.15954 | -101.52000 | 35107 ft | 573 kts | 123° |
| 2026-04-30 07:28 | 35.12432 | -101.43313 | 35074 ft | 572 kts | 124° |
| 2026-04-30 07:29 | 35.08822 | -101.34634 | 35066 ft | 572 kts | 124° |
| 2026-04-30 07:29 | 35.05179 | -101.25972 | 35076 ft | 572 kts | 124° |
| 2026-04-30 07:30 | 34.99724 | -101.13030 | 35086 ft | 574 kts | 124° |
| 2026-04-30 07:31 | 34.96072 | -101.04369 | 35062 ft | 572 kts | 124° |
| 2026-04-30 07:31 | 34.92437 | -100.95769 | 35065 ft | 571 kts | 124° |
| 2026-04-30 07:32 | 34.88809 | -100.87210 | 35071 ft | 570 kts | 124° |
| 2026-04-30 07:32 | 34.85150 | -100.78605 | 35073 ft | 570 kts | 124° |
| 2026-04-30 07:33 | 34.81503 | -100.70047 | 35076 ft | 569 kts | 124° |
| 2026-04-30 07:33 | 34.77871 | -100.61548 | 35027 ft | 569 kts | 124° |
| 2026-04-30 07:34 | 34.74216 | -100.53011 | 35089 ft | 567 kts | 124° |
| 2026-04-30 07:34 | 34.70559 | -100.44497 | 35082 ft | 567 kts | 124° |
| 2026-04-30 07:35 | 34.66921 | -100.36046 | 35080 ft | 567 kts | 124° |
| 2026-04-30 07:35 | 34.63250 | -100.27540 | 35088 ft | 567 kts | 124° |
| 2026-04-30 07:36 | 34.59579 | -100.19054 | 35077 ft | 567 kts | 124° |
| 2026-04-30 07:36 | 34.55923 | -100.10623 | 35053 ft | 567 kts | 124° |
| 2026-04-30 07:37 | 34.52242 | -100.02155 | 35072 ft | 567 kts | 124° |
| 2026-04-30 07:37 | 34.48549 | -99.93680 | 35071 ft | 567 kts | 124° |
| 2026-04-30 07:38 | 34.44874 | -99.85268 | 35074 ft | 568 kts | 124° |
| 2026-04-30 07:38 | 34.41159 | -99.76780 | 35060 ft | 569 kts | 124° |
| 2026-04-30 07:39 | 34.37441 | -99.68307 | 35059 ft | 569 kts | 124° |
| 2026-04-30 07:39 | 34.33740 | -99.59888 | 35042 ft | 569 kts | 124° |
| 2026-04-30 07:40 | 34.29933 | -99.51484 | 35043 ft | 568 kts | 126° |
| 2026-04-30 07:40 | 34.25979 | -99.43275 | 35046 ft | 567 kts | 127° |
| 2026-04-30 07:41 | 34.21977 | -99.35004 | 35043 ft | 568 kts | 126° |
| 2026-04-30 07:41 | 34.18037 | -99.26787 | 35052 ft | 568 kts | 126° |
| 2026-04-30 07:42 | 34.14072 | -99.18492 | 35049 ft | 568 kts | 126° |
| 2026-04-30 07:42 | 34.10139 | -99.10282 | 35046 ft | 567 kts | 126° |
| 2026-04-30 07:43 | 34.06180 | -99.02043 | 35042 ft | 566 kts | 126° |
| 2026-04-30 07:43 | 34.02235 | -98.93860 | 35048 ft | 566 kts | 126° |
| 2026-04-30 07:44 | 33.98263 | -98.85639 | 35047 ft | 566 kts | 126° |
| 2026-04-30 07:44 | 33.94300 | -98.77450 | 35062 ft | 566 kts | 126° |
| 2026-04-30 07:44 | 33.92308 | -98.73337 | 34772 ft | 570 kts | 126° |
| 2026-04-30 07:45 | 33.90302 | -98.69206 | 34037 ft | 572 kts | 126° |
| 2026-04-30 07:45 | 33.88330 | -98.65142 | 33291 ft | 566 kts | 126° |
| 2026-04-30 07:45 | 33.86323 | -98.61029 | 32268 ft | 568 kts | 127° |
| 2026-04-30 07:45 | 33.84323 | -98.56937 | 31577 ft | 563 kts | 127° |
| 2026-04-30 07:46 | 33.82349 | -98.52900 | 30996 ft | 557 kts | 127° |
| 2026-04-30 07:46 | 33.80389 | -98.48893 | 30372 ft | 551 kts | 127° |
| 2026-04-30 07:46 | 33.78476 | -98.44986 | 29718 ft | 546 kts | 127° |
| 2026-04-30 07:46 | 33.76555 | -98.41065 | 29048 ft | 540 kts | 127° |
| 2026-04-30 07:47 | 33.74650 | -98.37183 | 28436 ft | 533 kts | 127° |
| 2026-04-30 07:47 | 33.72778 | -98.33371 | 27848 ft | 526 kts | 127° |
| 2026-04-30 07:47 | 33.70925 | -98.29601 | 27260 ft | 519 kts | 126° |
| 2026-04-30 07:47 | 33.69097 | -98.25888 | 26700 ft | 513 kts | 126° |
| 2026-04-30 07:48 | 33.67292 | -98.22222 | 26112 ft | 507 kts | 126° |
| 2026-04-30 07:48 | 33.65527 | -98.18644 | 25569 ft | 501 kts | 126° |
| 2026-04-30 07:48 | 33.63758 | -98.15061 | 25034 ft | 495 kts | 125° |
| 2026-04-30 07:48 | 33.61998 | -98.11512 | 24476 ft | 490 kts | 125° |
| 2026-04-30 07:49 | 33.60288 | -98.08073 | 24204 ft | 478 kts | 125° |
| 2026-04-30 07:49 | 33.58613 | -98.04703 | 24088 ft | 463 kts | 125° |
| 2026-04-30 07:49 | 33.56978 | -98.01415 | 23860 ft | 452 kts | 125° |
| 2026-04-30 07:49 | 33.55372 | -97.98196 | 23364 ft | 449 kts | 125° |
| 2026-04-30 07:50 | 33.53769 | -97.94989 | 22352 ft | 457 kts | 125° |
| 2026-04-30 07:50 | 33.52130 | -97.91710 | 21578 ft | 459 kts | 125° |
| 2026-04-30 07:50 | 33.50495 | -97.88431 | 21062 ft | 453 kts | 125° |
| 2026-04-30 07:50 | 33.48891 | -97.85211 | 20615 ft | 446 kts | 124° |
| 2026-04-30 07:51 | 33.47309 | -97.82035 | 20131 ft | 440 kts | 124° |
| 2026-04-30 07:51 | 33.45746 | -97.78899 | 19638 ft | 435 kts | 124° |
| 2026-04-30 07:51 | 33.44221 | -97.75842 | 19149 ft | 430 kts | 124° |
| 2026-04-30 07:51 | 33.42688 | -97.72772 | 18642 ft | 426 kts | 124° |
| 2026-04-30 07:52 | 33.41174 | -97.69743 | 18142 ft | 422 kts | 124° |
| 2026-04-30 07:52 | 33.39675 | -97.66747 | 17594 ft | 418 kts | 124° |
| 2026-04-30 07:52 | 33.38141 | -97.63824 | 17191 ft | 408 kts | 131° |
| 2026-04-30 07:52 | 33.36253 | -97.61388 | 16908 ft | 392 kts | 141° |
| 2026-04-30 07:53 | 33.34294 | -97.59196 | 16443 ft | 388 kts | 142° |
| 2026-04-30 07:53 | 33.32322 | -97.56992 | 15899 ft | 387 kts | 141° |
| 2026-04-30 07:53 | 33.30385 | -97.54764 | 15393 ft | 386 kts | 140° |
| 2026-04-30 07:53 | 33.28476 | -97.52529 | 15076 ft | 378 kts | 140° |
| 2026-04-30 07:54 | 33.26607 | -97.50329 | 14680 ft | 374 kts | 140° |
| 2026-04-30 07:54 | 33.24770 | -97.48172 | 14381 ft | 367 kts | 140° |
| 2026-04-30 07:54 | 33.22978 | -97.46073 | 14061 ft | 364 kts | 140° |
| 2026-04-30 07:54 | 33.21173 | -97.43960 | 13721 ft | 362 kts | 140° |
| 2026-04-30 07:55 | 33.19369 | -97.41850 | 13353 ft | 362 kts | 140° |
| 2026-04-30 07:55 | 33.17573 | -97.39749 | 13000 ft | 361 kts | 139° |
| 2026-04-30 07:55 | 33.15790 | -97.37663 | 12653 ft | 356 kts | 139° |
| 2026-04-30 07:55 | 33.14030 | -97.35607 | 12314 ft | 351 kts | 139° |
| 2026-04-30 07:56 | 33.12293 | -97.33579 | 12042 ft | 344 kts | 139° |
| 2026-04-30 07:56 | 33.10634 | -97.31640 | 11991 ft | 330 kts | 139° |
| 2026-04-30 07:56 | 33.09021 | -97.29755 | 11980 ft | 319 kts | 139° |
| 2026-04-30 07:56 | 33.07453 | -97.27927 | 11990 ft | 317 kts | 139° |
| 2026-04-30 07:57 | 33.05868 | -97.26081 | 12003 ft | 319 kts | 139° |
| 2026-04-30 07:57 | 33.04276 | -97.24225 | 11993 ft | 320 kts | 139° |
| 2026-04-30 07:57 | 33.02685 | -97.22371 | 11978 ft | 317 kts | 139° |
| 2026-04-30 07:57 | 33.01132 | -97.20561 | 11956 ft | 307 kts | 139° |
| 2026-04-30 07:58 | 32.99651 | -97.18835 | 11953 ft | 294 kts | 140° |
| 2026-04-30 07:58 | 32.98070 | -97.17444 | 11948 ft | 271 kts | 165° |
| 2026-04-30 07:58 | 32.96305 | -97.16924 | 11958 ft | 255 kts | 181° |
| 2026-04-30 07:58 | 32.94507 | -97.16779 | 11508 ft | 270 kts | 185° |
| 2026-04-30 07:59 | 32.92607 | -97.16707 | 11199 ft | 271 kts | 185° |
| 2026-04-30 07:59 | 32.90747 | -97.16637 | 10931 ft | 269 kts | 185° |
| 2026-04-30 07:59 | 32.88875 | -97.16555 | 10661 ft | 268 kts | 184° |
| 2026-04-30 08:00 | 32.85158 | -97.16367 | 10133 ft | 265 kts | 183° |
| 2026-04-30 08:00 | 32.83343 | -97.16269 | 9879 ft | 264 kts | 183° |
| 2026-04-30 08:00 | 32.81507 | -97.16169 | 9596 ft | 263 kts | 182° |
| 2026-04-30 08:00 | 32.79674 | -97.16071 | 9348 ft | 261 kts | 183° |
| 2026-04-30 08:01 | 32.77853 | -97.16045 | 8983 ft | 263 kts | 185° |
| 2026-04-30 08:01 | 32.75998 | -97.16055 | 8574 ft | 267 kts | 185° |
| 2026-04-30 08:01 | 32.74148 | -97.16068 | 8194 ft | 270 kts | 184° |
| 2026-04-30 08:01 | 32.72251 | -97.16077 | 7810 ft | 273 kts | 183° |
| 2026-04-30 08:02 | 32.68468 | -97.16083 | 7049 ft | 271 kts | 182° |
| 2026-04-30 08:02 | 32.66582 | -97.16083 | 6673 ft | 270 kts | 183° |
| 2026-04-30 08:03 | 32.62918 | -97.16083 | 6137 ft | 257 kts | 182° |
| 2026-04-30 08:03 | 32.59427 | -97.16083 | 5624 ft | 245 kts | 182° |
| 2026-04-30 08:03 | 32.57752 | -97.15865 | 5340 ft | 242 kts | 157° |
| 2026-04-30 08:04 | 32.56531 | -97.14592 | 5083 ft | 233 kts | 115° |
| 2026-04-30 08:04 | 32.56162 | -97.12782 | 4867 ft | 224 kts | 88° |
| 2026-04-30 08:04 | 32.56408 | -97.10989 | 4631 ft | 222 kts | 66° |
| 2026-04-30 08:04 | 32.57143 | -97.09441 | 4432 ft | 210 kts | 55° |
| 2026-04-30 08:05 | 32.57916 | -97.08079 | 4433 ft | 187 kts | 54° |
| 2026-04-30 08:05 | 32.58618 | -97.06844 | 4420 ft | 177 kts | 54° |
| 2026-04-30 08:05 | 32.59503 | -97.05878 | 4369 ft | 176 kts | 19° |
| 2026-04-30 08:05 | 32.60715 | -97.05660 | 4421 ft | 179 kts | 5° |
| 2026-04-30 08:06 | 32.61965 | -97.05604 | 4429 ft | 183 kts | 2° |
| 2026-04-30 08:06 | 32.63229 | -97.05596 | 4421 ft | 180 kts | 2° |
| 2026-04-30 08:06 | 32.64472 | -97.05593 | 4413 ft | 177 kts | 2° |
| 2026-04-30 08:06 | 32.65726 | -97.05587 | 4259 ft | 182 kts | 2° |
| 2026-04-30 08:07 | 32.66997 | -97.05582 | 4121 ft | 181 kts | 3° |
| 2026-04-30 08:07 | 32.67825 | -97.05579 | 4042 ft | 179 kts | 3° |
| 2026-04-30 08:07 | 32.69065 | -97.05572 | 4024 ft | 177 kts | 3° |
| 2026-04-30 08:07 | 32.70709 | -97.05563 | 3961 ft | 181 kts | 5° |
| 2026-04-30 08:08 | 32.71574 | -97.05560 | 3804 ft | 183 kts | 6° |
| 2026-04-30 08:08 | 32.72816 | -97.05557 | 3560 ft | 178 kts | 6° |
| 2026-04-30 08:08 | 32.74036 | -97.05552 | 3334 ft | 171 kts | 8° |
| 2026-04-30 08:08 | 32.75215 | -97.05546 | 3092 ft | 170 kts | 8° |
| 2026-04-30 08:09 | 32.76387 | -97.05539 | 2869 ft | 171 kts | 7° |
| 2026-04-30 08:09 | 32.77545 | -97.05536 | 2627 ft | 161 kts | 7° |
| 2026-04-30 08:09 | 32.78636 | -97.05532 | 2446 ft | 152 kts | 7° |
| 2026-04-30 08:09 | 32.79671 | -97.05526 | 2258 ft | 149 kts | 7° |
| 2026-04-30 08:10 | 32.80684 | -97.05521 | 2019 ft | 145 kts | 7° |
| 2026-04-30 08:10 | 32.81683 | -97.05516 | 1861 ft | 143 kts | 5° |
| 2026-04-30 08:10 | 32.82680 | -97.05511 | 1673 ft | 144 kts | 6° |
| 2026-04-30 08:10 | 32.83685 | -97.05507 | 1464 ft | 141 kts | 4° |
| 2026-04-30 08:11 | 32.84663 | -97.05502 | 1283 ft | 140 kts | 3° |
| 2026-04-30 08:11 | 32.85605 | -97.05498 | 1096 ft | 137 kts | 2° |
| 2026-04-30 08:11 | 32.86564 | -97.05494 | 938 ft | 139 kts | 2° |
| 2026-04-30 08:11 | 32.87532 | -97.05491 | 741 ft | 136 kts | 1° |
| 2026-04-30 08:12 | 32.88486 | -97.05497 | 623 ft | 136 kts | 5° |
| 2026-04-30 08:12 | 32.89411 | -97.05479 | 597 ft | 126 kts | 1° |
| 2026-04-30 08:12 | 32.90012 | -97.05474 | 597 ft | 55 kts | 1° |
| 2026-04-30 08:12 | 32.90204 | -97.05466 | 597 ft | 23 kts | 20° |
| 2026-04-30 08:13 | 32.90340 | -97.05371 | 597 ft | 22 kts | 32° |
| 2026-04-30 08:13 | 32.90449 | -97.05292 | 597 ft | 11 kts | 35° |
| 2026-04-30 08:13 | 32.90475 | -97.05210 | 597 ft | 11 kts | 86° |
| 2026-04-30 08:13 | 32.90479 | -97.05121 | 597 ft | 11 kts | 88° |
| 2026-04-30 08:14 | 32.90479 | -97.05034 | 597 ft | 10 kts | 91° |
| 2026-04-30 08:14 | 32.90477 | -97.04950 | 597 ft | 10 kts | 92° |
| 2026-04-30 08:14 | 32.90475 | -97.04868 | 597 ft | 10 kts | 92° |
| 2026-04-30 08:14 | 32.90472 | -97.04788 | 597 ft | 10 kts | 92° |
| 2026-04-30 08:15 | 32.90469 | -97.04710 | 597 ft | 9 kts | 98° |
| 2026-04-30 08:15 | 32.90426 | -97.04658 | 597 ft | 9 kts | 152° |
| 2026-04-30 08:15 | 32.90366 | -97.04633 | 597 ft | 9 kts | 164° |
| 2026-04-30 08:15 | 32.90308 | -97.04607 | 597 ft | 9 kts | 156° |
| 2026-04-30 08:16 | 32.90255 | -97.04575 | 597 ft | 7 kts | 150° |
| 2026-04-30 08:16 | 32.90229 | -97.04545 | 597 ft | 5 kts | 106° |
| 2026-04-30 08:16 | 32.90244 | -97.04510 | 597 ft | 5 kts | 46° |
| 2026-04-30 08:16 | 32.90261 | -97.04490 | 597 ft | 2 kts | 45° |
| 2026-04-30 08:17 | 32.90264 | -97.04487 | 597 ft | 0 kts | 44° |